sensor_id;sensor_type;location;lat;lon;timestamp;temperature;humidity
11965;DHT22;6042;41.326;19.826;2024-02-21T00:00:09;7.30;99.90
11965;DHT22;6042;41.326;19.826;2024-02-21T00:02:39;7.20;99.90
11965;DHT22;6042;41.326;19.826;2024-02-21T00:05:07;7.30;99.90
11965;DHT22;6042;41.326;19.826;2024-02-21T00:07:37;7.50;99.90
11965;DHT22;6042;41.326;19.826;2024-02-21T00:10:07;7.50;99.90
11965;DHT22;6042;41.326;19.826;2024-02-21T00:12:36;7.70;99.90
11965;DHT22;6042;41.326;19.826;2024-02-21T00:15:05;7.60;99.90
11965;DHT22;6042;41.326;19.826;2024-02-21T00:17:34;7.50;99.90
11965;DHT22;6042;41.326;19.826;2024-02-21T00:20:03;7.60;99.90
11965;DHT22;6042;41.326;19.826;2024-02-21T00:22:32;7.50;99.90
11965;DHT22;6042;41.326;19.826;2024-02-21T00:25:02;7.40;99.90
11965;DHT22;6042;41.326;19.826;2024-02-21T00:27:31;7.40;99.90
11965;DHT22;6042;41.326;19.826;2024-02-21T00:30:00;7.50;99.90
11965;DHT22;6042;41.326;19.826;2024-02-21T00:32:28;7.40;99.90
11965;DHT22;6042;41.326;19.826;2024-02-21T00:34:57;7.50;99.90
11965;DHT22;6042;41.326;19.826;2024-02-21T00:37:26;7.60;99.90
11965;DHT22;6042;41.326;19.826;2024-02-21T00:39:54;7.60;99.90
11965;DHT22;6042;41.326;19.826;2024-02-21T00:42:24;7.40;99.90
11965;DHT22;6042;41.326;19.826;2024-02-21T00:44:53;7.40;99.90
11965;DHT22;6042;41.326;19.826;2024-02-21T00:47:21;7.30;99.90
11965;DHT22;6042;41.326;19.826;2024-02-21T00:49:50;7.10;99.90
11965;DHT22;6042;41.326;19.826;2024-02-21T00:52:19;7.10;99.90
11965;DHT22;6042;41.326;19.826;2024-02-21T00:54:47;7.30;99.90
11965;DHT22;6042;41.326;19.826;2024-02-21T00:57:21;7.20;99.90
11965;DHT22;6042;41.326;19.826;2024-02-21T00:59:52;7.40;99.90
11965;DHT22;6042;41.326;19.826;2024-02-21T01:02:24;7.60;99.90
11965;DHT22;6042;41.326;19.826;2024-02-21T01:04:52;7.50;99.90
11965;DHT22;6042;41.326;19.826;2024-02-21T01:07:21;7.30;99.90
11965;DHT22;6042;41.326;19.826;2024-02-21T01:09:50;7.30;99.90
11965;DHT22;6042;41.326;19.826;2024-02-21T01:12:20;7.20;99.90
11965;DHT22;6042;41.326;19.826;2024-02-21T01:14:48;7.00;99.90
11965;DHT22;6042;41.326;19.826;2024-02-21T01:17:18;7.10;99.90
11965;DHT22;6042;41.326;19.826;2024-02-21T01:19:47;7.30;99.90
11965;DHT22;6042;41.326;19.826;2024-02-21T01:22:16;7.10;99.90
11965;DHT22;6042;41.326;19.826;2024-02-21T01:24:45;7.00;99.90
11965;DHT22;6042;41.326;19.826;2024-02-21T01:27:13;7.10;99.90
11965;DHT22;6042;41.326;19.826;2024-02-21T01:29:45;7.10;99.90
11965;DHT22;6042;41.326;19.826;2024-02-21T01:32:14;7.00;99.90
11965;DHT22;6042;41.326;19.826;2024-02-21T01:34:44;7.10;99.90
11965;DHT22;6042;41.326;19.826;2024-02-21T01:37:13;7.10;99.90
11965;DHT22;6042;41.326;19.826;2024-02-21T01:39:42;6.90;99.90
11965;DHT22;6042;41.326;19.826;2024-02-21T01:42:10;6.80;99.90
11965;DHT22;6042;41.326;19.826;2024-02-21T01:44:39;7.00;99.90
11965;DHT22;6042;41.326;19.826;2024-02-21T01:47:11;6.80;99.90
11965;DHT22;6042;41.326;19.826;2024-02-21T01:49:43;6.70;99.90
11965;DHT22;6042;41.326;19.826;2024-02-21T01:52:14;6.70;99.90
11965;DHT22;6042;41.326;19.826;2024-02-21T01:54:45;6.80;99.90
11965;DHT22;6042;41.326;19.826;2024-02-21T01:57:15;6.80;99.90
11965;DHT22;6042;41.326;19.826;2024-02-21T01:59:43;7.00;99.90
11965;DHT22;6042;41.326;19.826;2024-02-21T02:02:12;7.20;99.90
11965;DHT22;6042;41.326;19.826;2024-02-21T02:04:47;6.90;99.90
11965;DHT22;6042;41.326;19.826;2024-02-21T02:07:16;6.90;99.90
11965;DHT22;6042;41.326;19.826;2024-02-21T02:09:45;7.00;99.90
11965;DHT22;6042;41.326;19.826;2024-02-21T02:12:13;7.00;99.90
11965;DHT22;6042;41.326;19.826;2024-02-21T02:14:42;6.90;99.90
11965;DHT22;6042;41.326;19.826;2024-02-21T02:17:11;6.90;99.90
11965;DHT22;6042;41.326;19.826;2024-02-21T02:19:40;7.00;99.90
11965;DHT22;6042;41.326;19.826;2024-02-21T02:22:16;6.70;99.90
11965;DHT22;6042;41.326;19.826;2024-02-21T02:24:47;6.60;99.90
11965;DHT22;6042;41.326;19.826;2024-02-21T02:27:16;6.70;99.90
11965;DHT22;6042;41.326;19.826;2024-02-21T02:29:45;6.70;99.90
11965;DHT22;6042;41.326;19.826;2024-02-21T02:32:15;6.60;99.90
11965;DHT22;6042;41.326;19.826;2024-02-21T02:34:45;6.80;99.90
11965;DHT22;6042;41.326;19.826;2024-02-21T02:37:13;6.90;99.90
11965;DHT22;6042;41.326;19.826;2024-02-21T02:39:42;6.80;99.90
11965;DHT22;6042;41.326;19.826;2024-02-21T02:42:12;6.90;99.90
11965;DHT22;6042;41.326;19.826;2024-02-21T02:44:43;7.00;99.90
11965;DHT22;6042;41.326;19.826;2024-02-21T02:47:12;7.00;99.90
11965;DHT22;6042;41.326;19.826;2024-02-21T02:49:41;6.90;99.90
11965;DHT22;6042;41.326;19.826;2024-02-21T02:52:15;6.80;99.90
11965;DHT22;6042;41.326;19.826;2024-02-21T02:54:43;6.80;99.90
11965;DHT22;6042;41.326;19.826;2024-02-21T02:57:14;6.70;99.90
11965;DHT22;6042;41.326;19.826;2024-02-21T02:59:50;6.70;99.90
11965;DHT22;6042;41.326;19.826;2024-02-21T03:02:19;6.80;99.90
11965;DHT22;6042;41.326;19.826;2024-02-21T03:04:48;6.70;99.90
11965;DHT22;6042;41.326;19.826;2024-02-21T03:07:17;6.60;99.90
11965;DHT22;6042;41.326;19.826;2024-02-21T03:09:45;6.80;99.90
11965;DHT22;6042;41.326;19.826;2024-02-21T03:12:17;6.70;99.90
11965;DHT22;6042;41.326;19.826;2024-02-21T03:14:52;6.60;99.90
11965;DHT22;6042;41.326;19.826;2024-02-21T03:17:22;6.60;99.90
11965;DHT22;6042;41.326;19.826;2024-02-21T03:19:51;6.70;99.90
11965;DHT22;6042;41.326;19.826;2024-02-21T03:22:20;6.60;99.90
11965;DHT22;6042;41.326;19.826;2024-02-21T03:24:49;6.60;99.90
11965;DHT22;6042;41.326;19.826;2024-02-21T03:27:19;6.80;99.90
11965;DHT22;6042;41.326;19.826;2024-02-21T03:29:48;6.90;99.90
11965;DHT22;6042;41.326;19.826;2024-02-21T03:32:17;6.70;99.90
11965;DHT22;6042;41.326;19.826;2024-02-21T03:34:47;6.80;99.90
11965;DHT22;6042;41.326;19.826;2024-02-21T03:37:16;6.90;99.90
11965;DHT22;6042;41.326;19.826;2024-02-21T03:39:45;6.80;99.90
11965;DHT22;6042;41.326;19.826;2024-02-21T03:42:14;6.80;99.90
11965;DHT22;6042;41.326;19.826;2024-02-21T03:44:44;6.90;99.90
11965;DHT22;6042;41.326;19.826;2024-02-21T03:47:13;6.80;99.90
11965;DHT22;6042;41.326;19.826;2024-02-21T03:49:41;6.60;99.90
11965;DHT22;6042;41.326;19.826;2024-02-21T03:52:10;6.60;99.90
11965;DHT22;6042;41.326;19.826;2024-02-21T03:54:38;6.70;99.90
11965;DHT22;6042;41.326;19.826;2024-02-21T03:57:07;6.40;99.90
11965;DHT22;6042;41.326;19.826;2024-02-21T03:59:36;6.50;99.90
11965;DHT22;6042;41.326;19.826;2024-02-21T04:02:14;6.70;99.90
11965;DHT22;6042;41.326;19.826;2024-02-21T04:04:45;6.60;99.90
11965;DHT22;6042;41.326;19.826;2024-02-21T04:07:15;6.60;99.90
11965;DHT22;6042;41.326;19.826;2024-02-21T04:09:44;6.70;99.90
11965;DHT22;6042;41.326;19.826;2024-02-21T04:12:13;6.80;99.90
11965;DHT22;6042;41.326;19.826;2024-02-21T04:14:45;6.60;99.90
11965;DHT22;6042;41.326;19.826;2024-02-21T04:17:15;6.60;99.90
11965;DHT22;6042;41.326;19.826;2024-02-21T04:19:44;6.70;99.90
11965;DHT22;6042;41.326;19.826;2024-02-21T04:22:13;6.60;99.90
11965;DHT22;6042;41.326;19.826;2024-02-21T04:24:41;6.50;99.90
11965;DHT22;6042;41.326;19.826;2024-02-21T04:27:10;6.50;99.90
11965;DHT22;6042;41.326;19.826;2024-02-21T04:29:38;6.50;99.90
11965;DHT22;6042;41.326;19.826;2024-02-21T04:32:07;6.30;99.90
11965;DHT22;6042;41.326;19.826;2024-02-21T04:34:38;6.20;99.90
11965;DHT22;6042;41.326;19.826;2024-02-21T04:37:10;6.20;99.90
11965;DHT22;6042;41.326;19.826;2024-02-21T04:39:39;6.20;99.90
11965;DHT22;6042;41.326;19.826;2024-02-21T04:42:08;6.10;99.90
11965;DHT22;6042;41.326;19.826;2024-02-21T04:44:36;6.20;99.90
11965;DHT22;6042;41.326;19.826;2024-02-21T04:47:08;6.30;99.90
11965;DHT22;6042;41.326;19.826;2024-02-21T04:49:38;6.50;99.90
11965;DHT22;6042;41.326;19.826;2024-02-21T04:52:07;6.20;99.90
11965;DHT22;6042;41.326;19.826;2024-02-21T04:54:36;6.20;99.90
11965;DHT22;6042;41.326;19.826;2024-02-21T04:57:05;6.40;99.90
11965;DHT22;6042;41.326;19.826;2024-02-21T04:59:33;6.40;99.90
11965;DHT22;6042;41.326;19.826;2024-02-21T05:02:03;6.30;99.90
11965;DHT22;6042;41.326;19.826;2024-02-21T05:04:32;6.50;99.90
11965;DHT22;6042;41.326;19.826;2024-02-21T05:07:02;6.60;99.90
11965;DHT22;6042;41.326;19.826;2024-02-21T05:09:31;6.50;99.90
11965;DHT22;6042;41.326;19.826;2024-02-21T05:12:00;6.40;99.90
11965;DHT22;6042;41.326;19.826;2024-02-21T05:14:29;6.60;99.90
11965;DHT22;6042;41.326;19.826;2024-02-21T05:16:57;6.40;99.90
11965;DHT22;6042;41.326;19.826;2024-02-21T05:19:26;6.20;99.90
11965;DHT22;6042;41.326;19.826;2024-02-21T05:21:58;6.20;99.90
11965;DHT22;6042;41.326;19.826;2024-02-21T05:24:28;6.10;99.90
11965;DHT22;6042;41.326;19.826;2024-02-21T05:26:57;6.10;99.90
11965;DHT22;6042;41.326;19.826;2024-02-21T05:29:28;6.20;99.90
11965;DHT22;6042;41.326;19.826;2024-02-21T05:31:57;6.40;99.90
11965;DHT22;6042;41.326;19.826;2024-02-21T05:34:29;6.30;99.90
11965;DHT22;6042;41.326;19.826;2024-02-21T05:36:57;6.30;99.90
11965;DHT22;6042;41.326;19.826;2024-02-21T05:39:29;6.50;99.90
11965;DHT22;6042;41.326;19.826;2024-02-21T05:41:58;6.40;99.90
11965;DHT22;6042;41.326;19.826;2024-02-21T05:44:26;6.40;99.90
11965;DHT22;6042;41.326;19.826;2024-02-21T05:46:55;6.50;99.90
11965;DHT22;6042;41.326;19.826;2024-02-21T05:49:23;6.70;99.90
11965;DHT22;6042;41.326;19.826;2024-02-21T05:51:52;6.50;99.90
11965;DHT22;6042;41.326;19.826;2024-02-21T05:54:21;6.50;99.90
11965;DHT22;6042;41.326;19.826;2024-02-21T05:56:50;6.70;99.90
11965;DHT22;6042;41.326;19.826;2024-02-21T05:59:20;6.50;99.90
11965;DHT22;6042;41.326;19.826;2024-02-21T06:01:55;6.40;99.90
11965;DHT22;6042;41.326;19.826;2024-02-21T06:04:25;6.50;99.90
11965;DHT22;6042;41.326;19.826;2024-02-21T06:06:54;6.70;99.90
11965;DHT22;6042;41.326;19.826;2024-02-21T06:09:22;6.40;99.90
11965;DHT22;6042;41.326;19.826;2024-02-21T06:11:52;6.40;99.90
11965;DHT22;6042;41.326;19.826;2024-02-21T06:14:21;6.60;99.90
11965;DHT22;6042;41.326;19.826;2024-02-21T06:16:50;6.60;99.90
11965;DHT22;6042;41.326;19.826;2024-02-21T06:19:18;6.50;99.90
11965;DHT22;6042;41.326;19.826;2024-02-21T06:21:47;6.60;99.90
11965;DHT22;6042;41.326;19.826;2024-02-21T06:24:16;6.90;99.90
11965;DHT22;6042;41.326;19.826;2024-02-21T06:26:44;6.70;99.90
11965;DHT22;6042;41.326;19.826;2024-02-21T06:29:14;6.70;99.90
11965;DHT22;6042;41.326;19.826;2024-02-21T06:31:43;6.90;99.90
11965;DHT22;6042;41.326;19.826;2024-02-21T06:34:12;6.90;99.90
11965;DHT22;6042;41.326;19.826;2024-02-21T06:36:45;6.90;99.90
11965;DHT22;6042;41.326;19.826;2024-02-21T06:39:13;7.10;99.90
11965;DHT22;6042;41.326;19.826;2024-02-21T06:41:42;7.30;99.90
11965;DHT22;6042;41.326;19.826;2024-02-21T06:44:13;7.10;99.90
11965;DHT22;6042;41.326;19.826;2024-02-21T06:46:42;7.20;99.90
11965;DHT22;6042;41.326;19.826;2024-02-21T06:49:11;7.50;99.90
11965;DHT22;6042;41.326;19.826;2024-02-21T06:51:44;7.30;99.90
11965;DHT22;6042;41.326;19.826;2024-02-21T06:54:13;7.50;99.90
11965;DHT22;6042;41.326;19.826;2024-02-21T06:56:41;7.70;99.90
11965;DHT22;6042;41.326;19.826;2024-02-21T06:59:10;7.60;99.90
11965;DHT22;6042;41.326;19.826;2024-02-21T07:01:47;7.70;99.90
11965;DHT22;6042;41.326;19.826;2024-02-21T07:04:18;7.90;99.90
11965;DHT22;6042;41.326;19.826;2024-02-21T07:06:46;7.90;99.90
11965;DHT22;6042;41.326;19.826;2024-02-21T07:09:16;8.00;99.90
11965;DHT22;6042;41.326;19.826;2024-02-21T07:11:44;8.20;99.90
11965;DHT22;6042;41.326;19.826;2024-02-21T07:14:14;8.30;99.90
11965;DHT22;6042;41.326;19.826;2024-02-21T07:16:43;8.60;99.90
11965;DHT22;6042;41.326;19.826;2024-02-21T07:19:14;8.80;99.90
11965;DHT22;6042;41.326;19.826;2024-02-21T07:21:43;9.00;99.90
11965;DHT22;6042;41.326;19.826;2024-02-21T07:24:11;9.10;99.90
11965;DHT22;6042;41.326;19.826;2024-02-21T07:26:41;9.30;99.90
11965;DHT22;6042;41.326;19.826;2024-02-21T07:29:16;9.40;99.90
11965;DHT22;6042;41.326;19.826;2024-02-21T07:31:46;9.60;99.90
11965;DHT22;6042;41.326;19.826;2024-02-21T07:34:17;9.70;99.90
11965;DHT22;6042;41.326;19.826;2024-02-21T07:36:46;9.70;99.90
11965;DHT22;6042;41.326;19.826;2024-02-21T07:39:15;9.90;99.90
11965;DHT22;6042;41.326;19.826;2024-02-21T07:41:43;10.10;99.90
11965;DHT22;6042;41.326;19.826;2024-02-21T07:44:16;10.00;99.90
11965;DHT22;6042;41.326;19.826;2024-02-21T07:46:50;10.10;99.90
11965;DHT22;6042;41.326;19.826;2024-02-21T07:49:21;10.30;99.90
11965;DHT22;6042;41.326;19.826;2024-02-21T07:51:49;10.20;99.90
11965;DHT22;6042;41.326;19.826;2024-02-21T07:54:19;10.40;99.90
11965;DHT22;6042;41.326;19.826;2024-02-21T07:56:51;10.60;99.90
11965;DHT22;6042;41.326;19.826;2024-02-21T07:59:20;10.70;99.90
11965;DHT22;6042;41.326;19.826;2024-02-21T08:01:51;10.80;99.90
11965;DHT22;6042;41.326;19.826;2024-02-21T08:04:21;11.00;99.90
11965;DHT22;6042;41.326;19.826;2024-02-21T08:06:52;10.90;99.90
11965;DHT22;6042;41.326;19.826;2024-02-21T08:09:24;11.10;99.90
11965;DHT22;6042;41.326;19.826;2024-02-21T08:11:53;11.40;99.90
11965;DHT22;6042;41.326;19.826;2024-02-21T08:14:23;11.50;99.90
11965;DHT22;6042;41.326;19.826;2024-02-21T08:16:52;11.70;99.90
11965;DHT22;6042;41.326;19.826;2024-02-21T08:19:24;11.70;99.90
11965;DHT22;6042;41.326;19.826;2024-02-21T08:21:52;11.80;99.90
11965;DHT22;6042;41.326;19.826;2024-02-21T08:24:21;12.00;99.90
11965;DHT22;6042;41.326;19.826;2024-02-21T08:26:51;11.90;99.90
11965;DHT22;6042;41.326;19.826;2024-02-21T08:29:22;12.10;99.90
11965;DHT22;6042;41.326;19.826;2024-02-21T08:31:51;12.10;99.40
11965;DHT22;6042;41.326;19.826;2024-02-21T08:34:19;12.20;98.80
11965;DHT22;6042;41.326;19.826;2024-02-21T08:36:50;12.40;98.70
11965;DHT22;6042;41.326;19.826;2024-02-21T08:39:18;12.30;98.30
11965;DHT22;6042;41.326;19.826;2024-02-21T08:41:47;12.40;98.90
11965;DHT22;6042;41.326;19.826;2024-02-21T08:44:24;12.60;99.20
11965;DHT22;6042;41.326;19.826;2024-02-21T08:46:54;12.60;99.80
11965;DHT22;6042;41.326;19.826;2024-02-21T08:49:24;12.70;99.90
11965;DHT22;6042;41.326;19.826;2024-02-21T08:52:04;12.90;99.50
11965;DHT22;6042;41.326;19.826;2024-02-21T08:54:33;12.80;99.60
11965;DHT22;6042;41.326;19.826;2024-02-21T08:57:01;13.00;98.00
11965;DHT22;6042;41.326;19.826;2024-02-21T08:59:31;12.80;97.60
11965;DHT22;6042;41.326;19.826;2024-02-21T09:02:05;13.00;96.90
11965;DHT22;6042;41.326;19.826;2024-02-21T09:04:35;13.10;97.00
11965;DHT22;6042;41.326;19.826;2024-02-21T09:07:05;13.00;96.50
11965;DHT22;6042;41.326;19.826;2024-02-21T09:09:34;13.20;96.40
11965;DHT22;6042;41.326;19.826;2024-02-21T09:12:04;13.30;95.60
11965;DHT22;6042;41.326;19.826;2024-02-21T09:14:34;13.30;94.90
11965;DHT22;6042;41.326;19.826;2024-02-21T09:17:06;13.50;94.00
11965;DHT22;6042;41.326;19.826;2024-02-21T09:19:35;13.50;93.60
11965;DHT22;6042;41.326;19.826;2024-02-21T09:22:05;13.50;93.70
11965;DHT22;6042;41.326;19.826;2024-02-21T09:24:34;13.60;93.50
11965;DHT22;6042;41.326;19.826;2024-02-21T09:27:02;13.70;93.00
11965;DHT22;6042;41.326;19.826;2024-02-21T09:29:34;13.90;93.10
11965;DHT22;6042;41.326;19.826;2024-02-21T09:32:06;14.10;92.30
11965;DHT22;6042;41.326;19.826;2024-02-21T09:34:35;14.00;91.80
11965;DHT22;6042;41.326;19.826;2024-02-21T09:37:05;14.10;91.40
11965;DHT22;6042;41.326;19.826;2024-02-21T09:39:34;14.20;90.80
11965;DHT22;6042;41.326;19.826;2024-02-21T09:42:06;14.20;91.20
11965;DHT22;6042;41.326;19.826;2024-02-21T09:44:42;14.40;91.40
11965;DHT22;6042;41.326;19.826;2024-02-21T09:47:17;14.40;91.10
11965;DHT22;6042;41.326;19.826;2024-02-21T09:49:48;14.50;90.30
11965;DHT22;6042;41.326;19.826;2024-02-21T09:52:19;14.60;90.10
11965;DHT22;6042;41.326;19.826;2024-02-21T09:54:49;14.50;90.00
11965;DHT22;6042;41.326;19.826;2024-02-21T09:57:20;14.70;90.20
11965;DHT22;6042;41.326;19.826;2024-02-21T09:59:52;14.90;90.00
11965;DHT22;6042;41.326;19.826;2024-02-21T10:02:24;14.90;89.40
11965;DHT22;6042;41.326;19.826;2024-02-21T10:04:54;15.00;89.00
11965;DHT22;6042;41.326;19.826;2024-02-21T10:07:24;15.10;87.00
11965;DHT22;6042;41.326;19.826;2024-02-21T10:10:01;15.10;88.10
11965;DHT22;6042;41.326;19.826;2024-02-21T10:12:29;15.10;87.50
11965;DHT22;6042;41.326;19.826;2024-02-21T10:15:01;14.90;87.40
11965;DHT22;6042;41.326;19.826;2024-02-21T10:17:30;14.90;88.80
11965;DHT22;6042;41.326;19.826;2024-02-21T10:20:07;14.90;86.40
11965;DHT22;6042;41.326;19.826;2024-02-21T10:22:39;15.10;84.90
11965;DHT22;6042;41.326;19.826;2024-02-21T10:25:08;15.10;83.70
11965;DHT22;6042;41.326;19.826;2024-02-21T10:27:37;15.10;84.10
11965;DHT22;6042;41.326;19.826;2024-02-21T10:30:07;15.10;84.70
11965;DHT22;6042;41.326;19.826;2024-02-21T10:32:49;15.30;82.50
11965;DHT22;6042;41.326;19.826;2024-02-21T10:35:30;15.40;82.40
11965;DHT22;6042;41.326;19.826;2024-02-21T10:38:01;15.50;80.00
11965;DHT22;6042;41.326;19.826;2024-02-21T10:40:31;15.40;79.50
11965;DHT22;6042;41.326;19.826;2024-02-21T10:43:00;15.40;79.80
11965;DHT22;6042;41.326;19.826;2024-02-21T10:45:33;15.60;77.30
11965;DHT22;6042;41.326;19.826;2024-02-21T10:48:11;15.60;78.40
11965;DHT22;6042;41.326;19.826;2024-02-21T10:50:57;15.80;76.50
11965;DHT22;6042;41.326;19.826;2024-02-21T10:53:44;15.70;76.20
11965;DHT22;6042;41.326;19.826;2024-02-21T10:56:22;15.80;74.40
11965;DHT22;6042;41.326;19.826;2024-02-21T10:58:52;15.90;72.70
11965;DHT22;6042;41.326;19.826;2024-02-21T11:01:22;15.90;74.00
11965;DHT22;6042;41.326;19.826;2024-02-21T11:03:55;16.10;71.40
11965;DHT22;6042;41.326;19.826;2024-02-21T11:06:25;16.20;70.70
11965;DHT22;6042;41.326;19.826;2024-02-21T11:09:06;16.10;71.30
11965;DHT22;6042;41.326;19.826;2024-02-21T11:11:36;16.40;71.10
11965;DHT22;6042;41.326;19.826;2024-02-21T11:14:08;16.30;72.90
11965;DHT22;6042;41.326;19.826;2024-02-21T11:16:38;16.40;72.80
11965;DHT22;6042;41.326;19.826;2024-02-21T11:19:08;16.60;72.20
11965;DHT22;6042;41.326;19.826;2024-02-21T11:21:40;16.80;73.10
11965;DHT22;6042;41.326;19.826;2024-02-21T11:24:10;16.90;69.00
11965;DHT22;6042;41.326;19.826;2024-02-21T11:26:40;17.00;67.70
11965;DHT22;6042;41.326;19.826;2024-02-21T11:29:09;17.00;68.10
11965;DHT22;6042;41.326;19.826;2024-02-21T11:31:39;17.00;67.80
11965;DHT22;6042;41.326;19.826;2024-02-21T11:34:09;16.90;68.40
11965;DHT22;6042;41.326;19.826;2024-02-21T11:36:47;17.00;70.80
11965;DHT22;6042;41.326;19.826;2024-02-21T11:39:22;17.10;68.00
11965;DHT22;6042;41.326;19.826;2024-02-21T11:42:02;17.10;69.10
11965;DHT22;6042;41.326;19.826;2024-02-21T11:44:31;17.40;69.50
11965;DHT22;6042;41.326;19.826;2024-02-21T11:47:00;17.60;67.60
11965;DHT22;6042;41.326;19.826;2024-02-21T11:49:30;17.70;66.40
11965;DHT22;6042;41.326;19.826;2024-02-21T11:51:59;17.70;67.10
11965;DHT22;6042;41.326;19.826;2024-02-21T11:54:33;17.80;67.00
11965;DHT22;6042;41.326;19.826;2024-02-21T11:57:02;18.00;66.70
11965;DHT22;6042;41.326;19.826;2024-02-21T11:59:31;18.20;65.00
11965;DHT22;6042;41.326;19.826;2024-02-21T12:02:00;18.10;63.70
11965;DHT22;6042;41.326;19.826;2024-02-21T12:04:31;18.00;65.10
11965;DHT22;6042;41.326;19.826;2024-02-21T12:07:01;18.10;66.80
11965;DHT22;6042;41.326;19.826;2024-02-21T12:09:34;18.10;63.70
11965;DHT22;6042;41.326;19.826;2024-02-21T12:12:04;18.10;63.60
11965;DHT22;6042;41.326;19.826;2024-02-21T12:14:34;18.10;64.50
11965;DHT22;6042;41.326;19.826;2024-02-21T12:17:04;18.20;64.00
11965;DHT22;6042;41.326;19.826;2024-02-21T12:19:34;18.20;63.10
11965;DHT22;6042;41.326;19.826;2024-02-21T12:22:03;18.20;63.10
11965;DHT22;6042;41.326;19.826;2024-02-21T12:24:38;18.10;63.40
11965;DHT22;6042;41.326;19.826;2024-02-21T12:27:09;18.10;63.00
11965;DHT22;6042;41.326;19.826;2024-02-21T12:29:39;18.00;63.30
11965;DHT22;6042;41.326;19.826;2024-02-21T12:32:11;18.00;63.30
11965;DHT22;6042;41.326;19.826;2024-02-21T12:34:42;18.10;63.70
11965;DHT22;6042;41.326;19.826;2024-02-21T12:37:22;18.20;64.00
11965;DHT22;6042;41.326;19.826;2024-02-21T12:39:52;18.30;64.10
11965;DHT22;6042;41.326;19.826;2024-02-21T12:42:20;18.20;63.20
11965;DHT22;6042;41.326;19.826;2024-02-21T12:44:50;18.20;63.90
11965;DHT22;6042;41.326;19.826;2024-02-21T12:47:20;18.50;62.80
11965;DHT22;6042;41.326;19.826;2024-02-21T12:49:51;18.40;61.30
11965;DHT22;6042;41.326;19.826;2024-02-21T12:52:19;18.40;62.10
11965;DHT22;6042;41.326;19.826;2024-02-21T12:54:48;18.40;61.50
11965;DHT22;6042;41.326;19.826;2024-02-21T12:57:20;18.60;62.30
11965;DHT22;6042;41.326;19.826;2024-02-21T12:59:52;18.80;61.80
11965;DHT22;6042;41.326;19.826;2024-02-21T13:02:20;18.70;61.10
11965;DHT22;6042;41.326;19.826;2024-02-21T13:04:51;18.50;61.20
11965;DHT22;6042;41.326;19.826;2024-02-21T13:07:20;18.30;61.00
11965;DHT22;6042;41.326;19.826;2024-02-21T13:09:48;18.20;61.10
11965;DHT22;6042;41.326;19.826;2024-02-21T13:12:17;18.20;61.40
11965;DHT22;6042;41.326;19.826;2024-02-21T13:14:47;18.30;62.10
11965;DHT22;6042;41.326;19.826;2024-02-21T13:17:26;18.50;60.90
11965;DHT22;6042;41.326;19.826;2024-02-21T13:20:03;18.50;61.80
11965;DHT22;6042;41.326;19.826;2024-02-21T13:22:33;18.50;60.50
11965;DHT22;6042;41.326;19.826;2024-02-21T13:25:04;18.40;60.80
11965;DHT22;6042;41.326;19.826;2024-02-21T13:27:34;18.40;60.70
11965;DHT22;6042;41.326;19.826;2024-02-21T13:30:05;18.20;60.60
11965;DHT22;6042;41.326;19.826;2024-02-21T13:32:36;18.30;61.30
11965;DHT22;6042;41.326;19.826;2024-02-21T13:35:05;18.10;63.10
11965;DHT22;6042;41.326;19.826;2024-02-21T13:37:35;18.20;65.30
11965;DHT22;6042;41.326;19.826;2024-02-21T13:40:05;17.90;66.60
11965;DHT22;6042;41.326;19.826;2024-02-21T13:42:36;17.80;67.30
11965;DHT22;6042;41.326;19.826;2024-02-21T13:45:07;17.60;67.50
11965;DHT22;6042;41.326;19.826;2024-02-21T13:47:36;17.30;68.80
11965;DHT22;6042;41.326;19.826;2024-02-21T13:50:06;17.30;68.90
11965;DHT22;6042;41.326;19.826;2024-02-21T13:52:40;17.20;68.70
11965;DHT22;6042;41.326;19.826;2024-02-21T13:55:09;17.00;69.10
11965;DHT22;6042;41.326;19.826;2024-02-21T13:57:37;17.00;70.10
11965;DHT22;6042;41.326;19.826;2024-02-21T14:00:10;16.90;70.70
11965;DHT22;6042;41.326;19.826;2024-02-21T14:02:39;16.70;71.30
11965;DHT22;6042;41.326;19.826;2024-02-21T14:05:08;16.60;72.60
11965;DHT22;6042;41.326;19.826;2024-02-21T14:07:37;16.50;72.70
11965;DHT22;6042;41.326;19.826;2024-02-21T14:10:07;16.30;72.60
11965;DHT22;6042;41.326;19.826;2024-02-21T14:12:37;16.30;73.40
11965;DHT22;6042;41.326;19.826;2024-02-21T14:15:09;16.30;73.30
11965;DHT22;6042;41.326;19.826;2024-02-21T14:17:38;16.30;73.30
11965;DHT22;6042;41.326;19.826;2024-02-21T14:20:08;16.20;73.50
11965;DHT22;6042;41.326;19.826;2024-02-21T14:22:39;16.10;74.00
11965;DHT22;6042;41.326;19.826;2024-02-21T14:25:08;16.10;74.00
11965;DHT22;6042;41.326;19.826;2024-02-21T14:27:39;15.90;74.30
11965;DHT22;6042;41.326;19.826;2024-02-21T14:30:09;15.90;74.30
11965;DHT22;6042;41.326;19.826;2024-02-21T14:32:41;15.80;73.70
11965;DHT22;6042;41.326;19.826;2024-02-21T14:35:12;15.70;73.00
11965;DHT22;6042;41.326;19.826;2024-02-21T14:37:41;15.70;73.80
11965;DHT22;6042;41.326;19.826;2024-02-21T14:40:10;15.80;72.40
11965;DHT22;6042;41.326;19.826;2024-02-21T14:42:39;15.80;71.60
11965;DHT22;6042;41.326;19.826;2024-02-21T14:45:10;15.70;71.70
11965;DHT22;6042;41.326;19.826;2024-02-21T14:47:39;15.70;72.30
11965;DHT22;6042;41.326;19.826;2024-02-21T14:50:08;15.70;72.30
11965;DHT22;6042;41.326;19.826;2024-02-21T14:52:36;15.70;71.90
11965;DHT22;6042;41.326;19.826;2024-02-21T14:55:06;15.60;72.00
11965;DHT22;6042;41.326;19.826;2024-02-21T14:57:35;15.60;72.20
11965;DHT22;6042;41.326;19.826;2024-02-21T15:00:10;15.60;71.90
11965;DHT22;6042;41.326;19.826;2024-02-21T15:02:39;15.60;71.80
11965;DHT22;6042;41.326;19.826;2024-02-21T15:05:08;15.60;71.50
11965;DHT22;6042;41.326;19.826;2024-02-21T15:07:39;15.70;71.50
11965;DHT22;6042;41.326;19.826;2024-02-21T15:10:08;15.60;70.90
11965;DHT22;6042;41.326;19.826;2024-02-21T15:12:38;15.70;71.90
11965;DHT22;6042;41.326;19.826;2024-02-21T15:15:08;15.60;71.70
11965;DHT22;6042;41.326;19.826;2024-02-21T15:17:38;15.60;71.50
11965;DHT22;6042;41.326;19.826;2024-02-21T15:20:07;15.60;72.20
11965;DHT22;6042;41.326;19.826;2024-02-21T15:22:36;15.60;71.00
11965;DHT22;6042;41.326;19.826;2024-02-21T15:25:05;15.50;70.60
11965;DHT22;6042;41.326;19.826;2024-02-21T15:27:37;15.50;70.40
11965;DHT22;6042;41.326;19.826;2024-02-21T15:30:08;15.50;71.10
11965;DHT22;6042;41.326;19.826;2024-02-21T15:32:42;15.50;70.70
11965;DHT22;6042;41.326;19.826;2024-02-21T15:35:12;15.30;70.30
11965;DHT22;6042;41.326;19.826;2024-02-21T15:37:41;15.30;70.10
11965;DHT22;6042;41.326;19.826;2024-02-21T15:40:10;15.30;69.10
11965;DHT22;6042;41.326;19.826;2024-02-21T15:42:40;15.30;69.70
11965;DHT22;6042;41.326;19.826;2024-02-21T15:45:10;15.30;71.30
11965;DHT22;6042;41.326;19.826;2024-02-21T15:47:43;15.20;71.20
11965;DHT22;6042;41.326;19.826;2024-02-21T15:50:12;15.20;70.30
11965;DHT22;6042;41.326;19.826;2024-02-21T15:52:41;15.20;70.90
11965;DHT22;6042;41.326;19.826;2024-02-21T15:55:10;15.10;75.30